Time;durP1;ratioP1;P1;durP2;ratioP2;P2;SDS_P1;SDS_P2;PMS_P1;PMS_P2;Temp;Humidity;BMP_temperature;BMP_pressure;BME280_temperature;BME280_humidity;BME280_pressure;Samples;Min_cycle;Max_cycle;Signal;HPM_P1;HPM_P2
2022/03/08 00:02:04;;;;;;;98.85;27.60;;;;;;;-0.97;100.00;100417.97;4905232;29;20055;-78
2022/03/08 00:04:48;;;;;;;84.30;22.98;;;;;;;-1.01;100.00;100416.16;4905373;29;20359;-78
2022/03/08 00:07:32;;;;;;;71.78;19.92;;;;;;;-1.15;100.00;100389.13;4905329;29;20079;-78
2022/03/08 00:10:19;;;;;;;41.28;13.38;;;;;;;-0.98;100.00;100410.22;4904789;29;20055;-78
2022/03/08 00:13:03;;;;;;;77.32;16.70;;;;;;;-1.15;100.00;100396.81;4890888;29;20052;-78
2022/03/08 00:15:49;;;;;;;145.32;31.00;;;;;;;-1.02;100.00;100414.38;4890892;29;20044;-78
2022/03/08 00:18:33;;;;;;;136.13;28.98;;;;;;;-1.12;100.00;100411.50;4904997;29;20443;-78
2022/03/08 00:21:19;;;;;;;113.75;25.45;;;;;;;-1.26;100.00;100391.34;4891047;29;20068;-78
2022/03/08 00:24:03;;;;;;;78.45;20.10;;;;;;;-1.37;100.00;100392.69;4904608;29;20083;-78
2022/03/08 00:26:48;;;;;;;57.15;15.48;;;;;;;-1.34;100.00;100397.94;4890659;29;20065;-78
2022/03/08 00:29:32;;;;;;;56.22;15.43;;;;;;;-1.26;100.00;100419.63;4904536;29;20041;-78
2022/03/08 00:32:17;;;;;;;71.95;17.70;;;;;;;-1.49;100.00;100377.78;4904301;29;20360;-78
2022/03/08 00:35:01;;;;;;;113.45;24.75;;;;;;;-1.39;100.00;100401.22;4890244;29;20044;-78
2022/03/08 00:37:48;;;;;;;127.75;25.13;;;;;;;-1.46;100.00;100405.28;4903975;29;20482;-78
2022/03/08 00:40:32;;;;;;;103.90;25.92;;;;;;;-1.50;100.00;100401.69;4890348;29;20405;-78
2022/03/08 00:43:19;;;;;;;106.25;26.08;;;;;;;-1.60;100.00;100397.09;4889611;29;20044;-78
2022/03/08 00:46:04;;;;;;;102.47;24.23;;;;;;;-1.55;100.00;100410.09;4889508;29;20471;-78
2022/03/08 00:48:50;;;;;;;75.45;19.50;;;;;;;-1.72;100.00;100391.56;4903620;29;20079;-78
2022/03/08 00:51:36;;;;;;;38.90;12.95;;;;;;;-1.71;100.00;100403.56;4903377;29;20052;-78
2022/03/08 00:54:21;;;;;;;33.35;10.68;;;;;;;-1.71;100.00;100413.84;4902926;29;20073;-78
2022/03/08 00:57:05;;;;;;;28.17;10.07;;;;;;;-1.76;100.00;100417.94;4903042;29;20041;-78
2022/03/08 00:59:52;;;;;;;24.90;9.32;;;;;;;-1.84;100.00;100407.41;4903073;29;20045;-78
2022/03/08 01:02:36;;;;;;;24.33;7.93;;;;;;;-1.97;100.00;100413.81;4888849;29;20060;-78
2022/03/08 01:05:21;;;;;;;21.85;8.80;;;;;;;-1.96;100.00;100414.69;4875142;29;20444;-78
2022/03/08 01:08:06;;;;;;;21.52;8.55;;;;;;;-2.04;100.00;100419.56;4888749;29;20116;-78
2022/03/08 01:10:51;;;;;;;30.00;9.85;;;;;;;-2.08;100.00;100415.16;4902744;29;20356;-78
2022/03/08 01:13:35;;;;;;;36.60;10.90;;;;;;;-2.13;100.00;100409.84;4888833;29;20049;-78
2022/03/08 01:16:20;;;;;;;69.38;20.55;;;;;;;-2.18;100.00;100413.94;4902434;29;20052;-78
2022/03/08 01:19:07;;;;;;;62.70;17.70;;;;;;;-2.19;100.00;100422.44;4872842;29;20060;-78
2022/03/08 01:21:51;;;;;;;38.20;11.00;;;;;;;-2.30;100.00;100417.78;4888763;29;20041;-78
2022/03/08 01:24:38;;;;;;;30.27;9.60;;;;;;;-2.26;100.00;100417.91;4888635;29;20120;-78
2022/03/08 01:27:23;;;;;;;23.02;8.68;;;;;;;-2.27;100.00;100425.59;4875433;29;20056;-78
2022/03/08 01:30:11;;;;;;;33.85;10.50;;;;;;;-2.32;100.00;100422.84;4902400;29;20104;-78
2022/03/08 01:32:56;;;;;;;37.50;11.70;;;;;;;-2.33;100.00;100422.78;4888183;29;20051;-78
2022/03/08 01:35:40;;;;;;;36.30;12.07;;;;;;;-2.28;100.00;100427.25;4888298;29;20483;-78
2022/03/08 01:38:25;;;;;;;64.18;17.48;;;;;;;-2.30;100.00;100428.03;4888273;29;20112;-78
2022/03/08 01:41:09;;;;;;;51.75;16.42;;;;;;;-2.26;100.00;100427.31;4862386;29;20045;-78
2022/03/08 01:43:54;;;;;;;31.45;11.45;;;;;;;-2.24;100.00;100426.56;4888216;29;20424;-78
2022/03/08 01:46:38;;;;;;;36.90;13.40;;;;;;;-2.29;100.00;100433.22;4888324;29;20123;-78
2022/03/08 01:49:23;;;;;;;23.23;9.32;;;;;;;-2.18;100.00;100434.50;4888105;29;20409;-78
2022/03/08 01:52:08;;;;;;;18.30;8.65;;;;;;;-2.22;100.00;100413.78;4902015;29;20044;-78
2022/03/08 01:54:53;;;;;;;35.47;12.23;;;;;;;-2.16;100.00;100421.69;4901657;29;20048;-78
2022/03/08 01:57:38;;;;;;;29.98;11.60;;;;;;;-2.24;100.00;100400.00;4901838;29;20115;-78
2022/03/08 02:00:29;;;;;;;22.70;9.05;;;;;;;-2.16;100.00;100417.44;4888237;29;20044;-78
2022/03/08 02:03:13;;;;;;;18.73;8.25;;;;;;;-2.21;100.00;100418.06;4872330;29;20056;-78
2022/03/08 02:05:58;;;;;;;17.08;8.13;;;;;;;-2.25;100.00;100418.78;4874745;29;20049;-77
2022/03/08 02:08:43;;;;;;;16.52;8.20;;;;;;;-2.23;100.00;100419.72;4901561;29;20044;-78
2022/03/08 02:11:29;;;;;;;18.23;9.55;;;;;;;-2.29;100.00;100406.69;4887890;29;20100;-78
2022/03/08 02:14:17;;;;;;;17.48;8.30;;;;;;;-2.33;100.00;100405.69;4887698;29;20084;-78
2022/03/08 02:17:02;;;;;;;16.83;7.47;;;;;;;-2.39;100.00;100395.22;4873975;29;20075;-78
2022/03/08 02:19:47;;;;;;;16.95;7.97;;;;;;;-2.43;100.00;100398.47;4887579;29;20392;-78
2022/03/08 02:22:31;;;;;;;15.35;7.65;;;;;;;-2.45;100.00;100397.53;4901705;29;20064;-78
2022/03/08 02:25:17;;;;;;;14.10;6.95;;;;;;;-2.51;100.00;100411.00;4887748;29;20048;-78
2022/03/08 02:28:02;;;;;;;17.52;7.50;;;;;;;-2.59;100.00;100403.03;4887566;29;20049;-78
2022/03/08 02:30:46;;;;;;;13.20;7.72;;;;;;;-2.61;100.00;100412.38;4901534;29;20041;-78
2022/03/08 02:33:31;;;;;;;15.30;7.45;;;;;;;-2.73;100.00;100401.66;4901658;29;20052;-78
2022/03/08 02:36:15;;;;;;;14.52;7.63;;;;;;;-2.74;100.00;100416.97;4901391;29;20439;-78
2022/03/08 02:38:59;;;;;;;15.20;7.25;;;;;;;-2.82;100.00;100409.88;4887804;29;20101;-78
2022/03/08 02:41:43;;;;;;;17.27;8.40;;;;;;;-2.87;100.00;100410.50;4887836;29;20448;-78
2022/03/08 02:44:29;;;;;;;16.35;7.20;;;;;;;-2.88;100.00;100408.78;4887810;29;20104;-77
2022/03/08 02:47:13;;;;;;;23.15;8.68;;;;;;;-2.97;100.00;100414.41;4887679;29;20052;-78
2022/03/08 02:49:58;;;;;;;17.98;8.35;;;;;;;-3.11;100.00;100402.75;4887725;29;20048;-78
2022/03/08 02:52:45;;;;;;;15.98;7.57;;;;;;;-3.14;100.00;100411.19;4874715;29;20079;-78
2022/03/08 02:55:32;;;;;;;17.70;7.47;;;;;;;-3.16;100.00;100409.38;4887814;29;20045;-78
2022/03/08 02:58:17;;;;;;;20.08;9.23;;;;;;;-3.31;100.00;100394.28;4887468;29;20199;-78
2022/03/08 03:01:02;;;;;;;17.67;8.93;;;;;;;-3.41;100.00;100394.69;4901661;29;20428;-78
2022/03/08 03:03:46;;;;;;;20.90;9.00;;;;;;;-3.36;100.00;100416.25;4901431;29;20041;-77
2022/03/08 03:06:31;;;;;;;18.10;8.18;;;;;;;-3.41;100.00;100415.19;4874554;29;20068;-78
2022/03/08 03:09:15;;;;;;;20.27;7.90;;;;;;;-3.46;100.00;100409.91;4874462;29;20041;-78
2022/03/08 03:12:00;;;;;;;19.80;8.40;;;;;;;-3.53;100.00;100416.47;4887725;29;20051;-78
2022/03/08 03:14:44;;;;;;;20.33;10.13;;;;;;;-3.58;100.00;100411.94;4871938;29;20048;-77
2022/03/08 03:17:29;;;;;;;20.95;9.45;;;;;;;-3.50;100.00;100415.72;4901324;29;20356;-78
2022/03/08 03:20:17;;;;;;;22.08;9.35;;;;;;;-3.65;100.00;100413.38;4887455;29;20136;-78
2022/03/08 03:23:01;;;;;;;15.45;8.82;;;;;;;-3.57;100.00;100429.09;4887744;29;20051;-78
2022/03/08 03:25:45;;;;;;;23.85;10.68;;;;;;;-3.61;100.00;100416.94;4901731;29;20056;-78
2022/03/08 03:28:30;;;;;;;18.83;9.23;;;;;;;-3.64;100.00;100421.94;4875484;29;20409;-77
2022/03/08 03:31:15;;;;;;;22.10;9.05;;;;;;;-3.75;100.00;100411.25;4891331;29;20045;-78
2022/03/08 03:33:59;;;;;;;19.48;9.18;;;;;;;-3.71;100.00;100431.03;4905188;29;20045;-78
2022/03/08 03:36:44;;;;;;;25.83;9.98;;;;;;;-3.80;100.00;100435.81;4891343;29;20104;-78
2022/03/08 03:39:28;;;;;;;23.00;9.88;;;;;;;-3.70;100.00;100444.75;4891445;29;20041;-78
2022/03/08 03:42:12;;;;;;;23.73;10.10;;;;;;;-3.72;100.00;100436.13;4878084;29;20044;-78
2022/03/08 03:44:57;;;;;;;21.05;9.35;;;;;;;-3.72;100.00;100437.00;4891077;29;20416;-78
2022/03/08 03:47:42;;;;;;;20.08;9.40;;;;;;;-3.68;100.00;100455.91;4891279;29;20135;-78
2022/03/08 03:50:26;;;;;;;18.27;9.40;;;;;;;-3.76;100.00;100442.81;4878134;29;20055;-78
2022/03/08 03:53:10;;;;;;;26.95;9.45;;;;;;;-3.81;100.00;100446.84;4891093;29;20458;-78
2022/03/08 03:55:55;;;;;;;22.60;9.23;;;;;;;-3.76;100.00;100448.78;4891078;29;20045;-78
2022/03/08 03:58:39;;;;;;;21.60;9.50;;;;;;;-3.83;100.00;100451.91;4891382;29;20040;-78
2022/03/08 04:01:24;;;;;;;17.67;8.90;;;;;;;-3.87;100.00;100442.31;4891300;29;20045;-78
2022/03/08 04:04:08;;;;;;;20.83;9.35;;;;;;;-3.91;100.00;100437.88;4891144;29;20044;-77
2022/03/08 04:06:53;;;;;;;19.17;9.60;;;;;;;-3.90;100.00;100452.47;4878007;29;20440;-78
2022/03/08 04:09:38;;;;;;;19.45;8.75;;;;;;;-3.85;100.00;100455.19;4891159;29;20048;-77
2022/03/08 04:12:22;;;;;;;21.48;9.77;;;;;;;-3.89;100.00;100450.75;4877788;29;20041;-78
2022/03/08 04:15:07;;;;;;;20.30;9.50;;;;;;;-3.84;100.00;100454.38;4862335;29;20443;-78
2022/03/08 04:17:51;;;;;;;20.33;9.52;;;;;;;-3.78;100.00;100452.97;4891006;29;20052;-78
2022/03/08 04:20:36;;;;;;;20.75;8.93;;;;;;;-3.77;100.00;100459.84;4890399;29;20056;-78
2022/03/08 04:23:21;;;;;;;19.35;8.82;;;;;;;-3.78;100.00;100455.50;4904701;29;20424;-77
2022/03/08 04:26:05;;;;;;;21.27;10.20;;;;;;;-3.70;100.00;100455.88;4877489;29;20052;-78
2022/03/08 04:28:50;;;;;;;18.88;8.73;;;;;;;-3.60;100.00;100470.81;4891023;29;20424;-78
2022/03/08 04:31:34;;;;;;;20.70;9.35;;;;;;;-3.55;100.00;100469.28;4890928;29;20051;-78
2022/03/08 04:34:19;;;;;;;24.42;10.13;;;;;;;-3.47;100.00;100459.38;4904257;29;20041;-77
2022/03/08 04:37:03;;;;;;;22.52;9.88;;;;;;;-3.39;100.00;100457.13;4877277;29;20037;-78
2022/03/08 04:39:49;;;;;;;23.02;10.25;;;;;;;-3.34;100.00;100466.75;4903787;29;20036;-77
2022/03/08 04:42:33;;;;;;;29.77;11.25;;;;;;;-3.28;100.00;100461.03;4890635;29;20487;-78
2022/03/08 04:45:18;;;;;;;19.55;10.00;;;;;;;-3.14;100.00;100467.56;4890156;29;20051;-78
2022/03/08 04:48:03;;;;;;;21.25;9.77;;;;;;;-3.01;100.00;100465.50;4904579;29;20049;-78
2022/03/08 04:50:48;;;;;;;14.45;8.93;;;;;;;-2.90;100.00;100467.66;4903994;29;20520;-78
2022/03/08 04:53:33;;;;;;;24.63;10.55;;;;;;;-2.77;100.00;100463.88;4904138;29;20048;-78
2022/03/08 04:56:18;;;;;;;29.35;14.32;;;;;;;-2.66;100.00;100470.31;4889922;29;20045;-78
2022/03/08 04:59:03;;;;;;;29.13;17.02;;;;;;;-2.52;100.00;100475.97;4890376;29;20040;-78
2022/03/08 05:01:49;;;;;;;31.90;19.27;;;;;;;-2.43;100.00;100475.47;4889668;29;20337;-77
2022/03/08 05:04:33;;;;;;;31.33;16.73;;;;;;;-2.31;100.00;100469.88;4890086;29;20055;-78
2022/03/08 05:07:18;;;;;;;25.33;16.08;;;;;;;-2.20;100.00;100471.19;4876746;29;20044;-77
2022/03/08 05:10:04;;;;;;;35.33;19.88;;;;;;;-2.10;100.00;100477.53;4876859;29;20502;-77
2022/03/08 05:12:49;;;;;;;71.75;36.30;;;;;;;-2.11;100.00;100463.81;4889593;29;20048;-77
2022/03/08 05:15:33;;;;;;;51.05;28.92;;;;;;;-1.98;100.00;100471.13;4903944;29;20045;-78
2022/03/08 05:18:18;;;;;;;49.55;27.15;;;;;;;-1.87;100.00;100481.78;4903927;29;20045;-78
2022/03/08 05:21:02;;;;;;;40.35;22.33;;;;;;;-1.82;100.00;100487.06;4890056;29;20140;-78
2022/03/08 05:23:46;;;;;;;41.33;19.85;;;;;;;-1.75;100.00;100486.50;4877820;29;20052;-78
2022/03/08 05:26:30;;;;;;;38.60;17.90;;;;;;;-1.67;100.00;100492.75;4891094;29;20052;-78
2022/03/08 05:29:16;;;;;;;30.23;15.27;;;;;;;-1.58;100.00;100494.78;4891212;29;20041;-78
2022/03/08 05:32:00;;;;;;;26.30;13.82;;;;;;;-1.51;100.00;100496.75;4892455;29;20451;-78
2022/03/08 05:34:45;;;;;;;22.88;11.30;;;;;;;-1.51;100.00;100497.59;4907541;29;20056;-78
2022/03/08 05:37:29;;;;;;;21.60;10.07;;;;;;;-1.35;100.00;100516.13;4908407;29;20069;-78
2022/03/08 05:40:13;;;;;;;16.77;9.27;;;;;;;-1.33;100.00;100519.59;4907793;29;20051;-78
2022/03/08 05:43:00;;;;;;;18.70;9.25;;;;;;;-1.30;100.00;100530.91;4893568;29;20056;-78
2022/03/08 05:45:45;;;;;;;19.45;10.20;;;;;;;-1.19;100.00;100508.97;4893883;29;20427;-78
2022/03/08 05:48:29;;;;;;;15.85;8.27;;;;;;;-1.12;100.00;100517.78;4893865;29;20051;-78
2022/03/08 05:51:13;;;;;;;19.38;8.88;;;;;;;-1.08;100.00;100518.75;4906864;29;20044;-78
2022/03/08 05:53:58;;;;;;;15.07;9.00;;;;;;;-1.05;100.00;100501.72;4893252;29;20081;-78
2022/03/08 05:56:43;;;;;;;15.15;8.57;;;;;;;-0.86;100.00;100518.63;4892808;29;20048;-78
2022/03/08 05:59:27;;;;;;;17.33;10.43;;;;;;;-0.90;100.00;100515.91;4892944;29;20040;-78
2022/03/08 06:02:12;;;;;;;18.80;10.75;;;;;;;-0.93;100.00;100515.81;4906153;29;20051;-80
2022/03/08 06:04:57;;;;;;;22.13;9.98;;;;;;;-0.89;100.00;100508.22;4905880;29;20049;-78
2022/03/08 06:07:41;;;;;;;17.35;8.82;;;;;;;-0.69;100.00;100513.13;4891907;29;20071;-77
2022/03/08 06:10:26;;;;;;;15.57;9.77;;;;;;;-0.63;100.00;100501.34;4892184;29;20448;-77
2022/03/08 06:13:10;;;;;;;16.40;11.48;;;;;;;-0.55;100.00;100510.19;4894546;29;20047;-82
2022/03/08 06:15:55;;;;;;;10.55;4.82;;;;;;;-0.52;100.00;100523.16;4900505;29;20108;-84
2022/03/08 06:18:40;;;;;;;11.25;5.57;;;;;;;-0.41;100.00;100509.72;4917165;29;20049;-82
2022/03/08 06:21:25;;;;;;;17.88;10.60;;;;;;;-0.30;100.00;100500.63;4904313;29;20099;-82
2022/03/08 06:24:11;;;;;;;8.70;4.72;;;;;;;-0.19;100.00;100516.41;4919170;29;20036;-82
2022/03/08 06:26:55;;;;;;;17.33;7.47;;;;;;;-0.32;100.00;100500.59;4918274;29;20048;-82
2022/03/08 06:29:41;;;;;;;14.70;6.80;;;;;;;-0.31;100.00;100511.75;4913088;29;20055;-82
2022/03/08 06:32:25;;;;;;;17.85;7.03;;;;;;;-0.09;100.00;100514.13;4914026;29;20049;-82
2022/03/08 06:35:10;;;;;;;23.55;10.00;;;;;;;-0.17;100.00;100500.13;4897887;29;20045;-82
2022/03/08 06:37:55;;;;;;;31.30;17.10;;;;;;;0.13;100.00;100512.16;4893008;29;20040;-82
2022/03/08 06:40:39;;;;;;;57.15;24.52;;;;;;;-0.03;100.00;100506.59;4903568;29;20100;-82
2022/03/08 06:43:23;;;;;;;48.38;21.92;;;;;;;0.13;100.00;100513.06;4890585;29;20068;-82
2022/03/08 06:46:08;;;;;;;18.20;8.73;;;;;;;0.19;100.00;100513.19;4902272;29;20059;-84
2022/03/08 06:48:53;;;;;;;19.30;9.90;;;;;;;0.26;100.00;100521.09;4900488;29;20045;-82
2022/03/08 06:51:38;;;;;;;53.45;22.20;;;;;;;0.31;100.00;100510.09;4900643;29;20108;-82
2022/03/08 06:54:23;;;;;;;107.30;39.03;;;;;;;0.44;100.00;100530.22;4901206;29;20056;-82
2022/03/08 06:57:07;;;;;;;61.25;25.20;;;;;;;0.50;100.00;100513.19;4900012;29;20049;-82
2022/03/08 06:59:52;;;;;;;52.70;21.50;;;;;;;0.39;100.00;100512.88;4886892;29;20397;-82
2022/03/08 07:02:36;;;;;;;127.10;42.55;;;;;;;0.72;100.00;100524.94;4901178;29;20049;-83
2022/03/08 07:05:21;;;;;;;126.93;41.00;;;;;;;0.71;100.00;100536.94;4890568;29;20048;-83
2022/03/08 07:08:07;;;;;;;43.88;17.85;;;;;;;0.69;100.00;100511.13;4904982;29;20045;-83
2022/03/08 07:10:51;;;;;;;22.58;11.60;;;;;;;0.69;100.00;100499.94;4890780;29;20124;-83
2022/03/08 07:13:36;;;;;;;22.52;11.98;;;;;;;0.95;100.00;100536.72;4890723;29;20052;-84
2022/03/08 07:16:20;;;;;;;59.70;24.17;;;;;;;0.93;100.00;100535.78;4904816;29;20108;-84
2022/03/08 07:19:05;;;;;;;62.50;24.38;;;;;;;0.98;100.00;100543.66;4903023;29;20045;-84
2022/03/08 07:21:50;;;;;;;100.43;35.83;;;;;;;1.06;100.00;100550.75;4888539;29;20443;-83
2022/03/08 07:24:34;;;;;;;29.05;13.55;;;;;;;0.95;100.00;100548.75;4902833;29;20056;-84
2022/03/08 07:27:19;;;;;;;27.58;11.90;;;;;;;1.19;100.00;100556.22;4902565;29;20374;-83
2022/03/08 07:30:06;;;;;;;19.63;8.95;;;;;;;1.13;100.00;100559.50;4902322;29;20052;-85
2022/03/08 07:32:51;;;;;;;29.48;12.90;;;;;;;1.23;100.00;100561.47;4888608;29;20112;-84
2022/03/08 07:35:36;;;;;;;47.65;21.20;;;;;;;1.26;100.00;100551.22;4903876;29;20041;-86
2022/03/08 07:38:20;;;;;;;23.67;10.60;;;;;;;1.23;100.00;100527.94;4890407;29;20127;-85
2022/03/08 07:41:06;;;;;;;16.92;8.80;;;;;;;1.39;100.00;100549.81;4888633;29;20108;-87
2022/03/08 07:43:50;;;;;;;12.02;6.05;;;;;;;1.38;100.00;100548.09;4875871;29;20060;-87
2022/03/08 07:46:34;;;;;;;12.15;4.65;;;;;;;1.34;100.00;100526.50;4903448;29;20052;-86
2022/03/08 07:49:18;;;;;;;23.38;9.90;;;;;;;1.57;100.00;100570.91;4904184;29;20063;-86
2022/03/08 07:52:04;;;;;;;15.88;6.60;;;;;;;1.50;100.00;100550.97;4904455;29;20044;-87
2022/03/08 07:54:48;;;;;;;19.13;10.13;;;;;;;1.66;100.00;100552.19;4904078;29;20078;-86
2022/03/08 07:57:32;;;;;;;16.55;7.25;;;;;;;1.75;100.00;100557.53;4904108;29;20052;-86
2022/03/08 08:00:17;;;;;;;16.80;7.03;;;;;;;1.74;100.00;100567.84;4890430;29;20048;-87
2022/03/08 08:03:03;;;;;;;8.07;2.97;;;;;;;1.62;100.00;100571.88;4889994;29;20045;-84
2022/03/08 08:05:48;;;;;;;7.75;3.95;;;;;;;1.60;100.00;100563.25;4904157;29;20054;-85
2022/03/08 08:08:32;;;;;;;11.05;4.15;;;;;;;1.58;100.00;100552.00;4904183;29;20044;-86
2022/03/08 08:11:16;;;;;;;9.55;4.82;;;;;;;1.64;100.00;100556.44;4889682;29;20040;-85
2022/03/08 08:14:01;;;;;;;6.03;3.75;;;;;;;1.55;100.00;100561.38;4876437;29;20055;-86
2022/03/08 08:16:45;;;;;;;10.70;5.25;;;;;;;1.58;100.00;100569.22;4903482;29;20052;-86
2022/03/08 08:19:30;;;;;;;19.13;8.48;;;;;;;1.66;100.00;100565.09;4903099;29;20060;-87
2022/03/08 08:22:14;;;;;;;83.88;24.27;;;;;;;1.53;100.00;100535.53;4903237;29;20072;-86
2022/03/08 08:24:59;;;;;;;41.78;16.40;;;;;;;1.78;100.00;100570.53;4903195;29;20040;-86
2022/03/08 08:27:44;;;;;;;32.40;15.07;;;;;;;1.70;100.00;100547.97;4903718;29;20052;-86
2022/03/08 08:30:28;;;;;;;41.45;18.08;;;;;;;1.73;100.00;100585.06;4889568;29;20432;-87
2022/03/08 08:33:12;;;;;;;34.63;16.70;;;;;;;1.77;100.00;100580.84;4903195;29;20048;-87
2022/03/08 08:35:57;;;;;;;35.22;15.68;;;;;;;1.87;100.00;100586.25;4876613;29;20412;-87
2022/03/08 08:38:42;;;;;;;17.60;8.77;;;;;;;1.71;100.00;100581.56;4903321;29;20120;-88
2022/03/08 08:41:26;;;;;;;16.08;7.78;;;;;;;1.83;100.00;100575.81;4903163;29;20077;-87
2022/03/08 08:44:11;;;;;;;17.25;7.20;;;;;;;1.89;100.00;100588.00;4889056;29;20048;-87
2022/03/08 08:46:56;;;;;;;9.63;4.90;;;;;;;1.77;100.00;100571.38;4889183;29;20450;-87
2022/03/08 08:49:40;;;;;;;11.43;5.28;;;;;;;1.79;100.00;100581.75;4902760;29;20076;-88
2022/03/08 08:52:25;;;;;;;23.77;10.55;;;;;;;1.89;100.00;100591.47;4888929;29;20049;-88
2022/03/08 08:55:09;;;;;;;32.13;13.30;;;;;;;1.90;100.00;100594.91;4902824;29;20120;-88
2022/03/08 08:57:54;;;;;;;17.52;8.65;;;;;;;1.87;100.00;100562.13;4903161;29;20056;-87
2022/03/08 09:00:38;;;;;;;24.40;12.55;;;;;;;1.99;100.00;100583.06;4889024;29;20040;-88
2022/03/08 09:03:23;;;;;;;20.70;9.77;;;;;;;2.04;100.00;100590.91;4876206;29;20421;-88
2022/03/08 09:06:07;;;;;;;54.72;20.48;;;;;;;1.96;100.00;100574.38;4903047;29;20376;-89
2022/03/08 09:08:52;;;;;;;16.98;8.45;;;;;;;1.96;100.00;100589.88;4903122;29;20100;-90
2022/03/08 09:11:36;;;;;;;23.45;8.82;;;;;;;2.36;100.00;100607.09;4902458;29;20048;-89
2022/03/08 09:14:21;;;;;;;21.13;9.43;;;;;;;2.34;100.00;100585.53;4888957;29;20044;-90
2022/03/08 09:17:05;;;;;;;14.93;6.53;;;;;;;2.59;100.00;100592.06;4888741;29;20447;-89
2022/03/08 09:19:50;;;;;;;26.15;10.10;;;;;;;2.54;100.00;100583.34;4888668;29;20048;-89
2022/03/08 09:22:34;;;;;;;15.50;6.88;;;;;;;2.62;100.00;100586.94;4888531;29;20045;-89
2022/03/08 09:25:18;;;;;;;12.50;6.47;;;;;;;2.60;100.00;100585.16;4888836;29;20048;-88
2022/03/08 09:28:05;;;;;;;18.48;9.70;;;;;;;2.65;100.00;100588.72;4902264;29;20048;-89
2022/03/08 09:30:49;;;;;;;16.88;8.90;;;;;;;2.71;100.00;100575.91;4902087;29;20048;-89
2022/03/08 09:33:33;;;;;;;11.80;6.57;;;;;;;2.99;100.00;100560.06;4888488;29;20052;-90
2022/03/08 09:36:18;;;;;;;20.83;7.72;;;;;;;3.50;100.00;100576.41;4902156;29;20044;-89
2022/03/08 09:39:04;;;;;;;20.08;8.75;;;;;;;3.55;100.00;100579.97;4875577;29;20127;-89
2022/03/08 09:41:52;;;;;;;22.25;11.32;;;;;;;3.59;100.00;100575.69;4888350;29;20044;-90
2022/03/08 09:44:36;;;;;;;13.05;5.75;;;;;;;3.57;100.00;100591.19;4888145;29;20040;-89
2022/03/08 09:47:22;;;;;;;11.05;5.38;;;;;;;3.36;100.00;100575.31;4888265;29;20119;-89
2022/03/08 09:50:09;;;;;;;8.43;4.40;;;;;;;3.62;100.00;100580.91;4888395;29;20100;-89
2022/03/08 09:52:56;;;;;;;10.20;5.07;;;;;;;3.46;100.00;100583.25;4887885;29;20053;-91
2022/03/08 09:55:40;;;;;;;10.45;6.05;;;;;;;3.44;100.00;100576.31;4887747;29;20040;-90
2022/03/08 09:58:25;;;;;;;9.88;5.60;;;;;;;3.37;100.00;100588.28;4887742;29;20052;-90
2022/03/08 10:01:10;;;;;;;13.63;5.88;;;;;;;3.54;100.00;100575.59;4887720;29;20044;-89
2022/03/08 10:03:54;;;;;;;12.25;5.97;;;;;;;3.94;100.00;100582.25;4888153;29;20044;-90
2022/03/08 10:06:43;;;;;;;13.38;5.32;;;;;;;4.15;100.00;100586.84;4902041;29;20052;-90
2022/03/08 10:09:28;;;;;;;9.32;4.10;;;;;;;3.93;100.00;100567.56;4874558;29;20055;-90
2022/03/08 10:12:17;;;;;;;15.68;9.18;;;;;;;4.17;100.00;100569.63;4874590;29;20045;-90
2022/03/08 10:15:17;;;;;;;7.90;3.92;;;;;;;4.73;100.00;100562.47;4874827;29;20041;-91
2022/03/08 10:18:01;;;;;;;13.82;7.93;;;;;;;4.62;100.00;100564.97;4887509;29;20040;-90
2022/03/08 10:20:46;;;;;;;27.52;23.73;;;;;;;5.03;100.00;100556.72;4887173;29;20064;-90
2022/03/08 10:23:41;;;;;;;13.10;8.32;;;;;;;5.62;100.00;100548.53;4887351;29;20369;-90
2022/03/08 10:26:26;;;;;;;12.93;7.45;;;;;;;5.61;97.31;100531.19;4887758;29;20056;-90
2022/03/08 10:29:11;;;;;;;7.05;4.47;;;;;;;5.25;100.00;100550.00;4887813;29;20040;-90
2022/03/08 10:32:18;;;;;;;7.82;4.78;;;;;;;5.18;100.00;100551.66;4887068;29;20041;-90
2022/03/08 10:35:03;;;;;;;7.47;4.60;;;;;;;5.41;100.00;100551.00;4887299;29;20044;-87
2022/03/08 10:37:48;;;;;;;11.32;4.75;;;;;;;5.43;99.74;100550.16;4886621;29;20052;-91
2022/03/08 10:40:33;;;;;;;16.98;8.10;;;;;;;4.92;100.00;100549.69;4901375;29;20108;-89
2022/03/08 10:43:18;;;;;;;8.70;5.55;;;;;;;5.05;100.00;100532.50;4899070;29;20048;-91
2022/03/08 10:46:02;;;;;;;8.57;4.57;;;;;;;5.48;100.00;100526.78;4885267;29;20430;-90
2022/03/08 10:48:47;;;;;;;7.25;4.15;;;;;;;5.74;98.28;100532.16;4885381;29;20054;-89
2022/03/08 10:51:32;;;;;;;10.70;4.63;;;;;;;5.90;95.20;100527.91;4885301;29;20064;-87
2022/03/08 10:54:16;;;;;;;8.50;4.82;;;;;;;5.96;92.39;100523.66;4885198;29;20041;-87
2022/03/08 10:57:00;;;;;;;7.80;4.03;;;;;;;6.17;92.57;100517.66;4885188;29;20048;-88
2022/03/08 10:59:55;;;;;;;8.40;4.95;;;;;;;5.65;83.95;100506.97;4885515;29;20337;-87
2022/03/08 11:02:56;;;;;;;9.85;5.00;;;;;;;5.90;77.92;100507.97;4873840;29;20440;-90
2022/03/08 11:05:45;;;;;;;9.65;5.55;;;;;;;6.24;77.28;100505.53;4900699;29;20048;-87
2022/03/08 11:08:29;;;;;;;10.10;4.57;;;;;;;6.31;75.82;100491.72;4886787;29;20045;-91
2022/03/08 11:11:14;;;;;;;15.60;8.60;;;;;;;5.92;77.34;100485.47;4886765;29;20049;-87
2022/03/08 11:13:58;;;;;;;7.30;4.13;;;;;;;5.64;75.87;100487.03;4887140;29;20415;-91
2022/03/08 11:16:47;;;;;;;8.90;5.40;;;;;;;6.02;75.76;100469.06;4887294;29;20075;-91
2022/03/08 11:19:31;;;;;;;17.00;9.40;;;;;;;6.49;77.50;100472.66;4900610;29;20052;-88
2022/03/08 11:22:21;;;;;;;10.18;5.53;;;;;;;6.67;73.84;100464.03;4901186;29;20100;-88
2022/03/08 11:25:08;;;;;;;12.18;5.82;;;;;;;6.22;74.21;100470.88;4900655;29;20120;-91
2022/03/08 11:27:54;;;;;;;16.05;8.88;;;;;;;6.78;73.96;100462.31;4900587;29;20044;-90
2022/03/08 11:30:48;;;;;;;9.90;4.30;;;;;;;6.85;75.12;100457.97;4873432;29;20044;-89
2022/03/08 11:34:04;;;;;;;6.65;3.80;;;;;;;6.86;72.40;100447.56;4873580;29;20056;-89
2022/03/08 11:36:58;;;;;;;8.25;4.30;;;;;;;7.14;72.69;100440.59;4886791;29;20045;-88
2022/03/08 11:39:43;;;;;;;8.70;5.35;;;;;;;6.96;69.33;100435.41;4873875;29;20040;-87
2022/03/08 11:42:30;;;;;;;6.72;3.58;;;;;;;7.12;69.95;100433.66;4886699;29;20052;-89
2022/03/08 11:45:28;;;;;;;6.03;4.38;;;;;;;7.49;70.72;100435.31;4900462;29;20052;-90
2022/03/08 11:48:12;;;;;;;7.93;3.72;;;;;;;7.23;69.77;100439.72;4886531;29;20068;-88
2022/03/08 11:51:08;;;;;;;9.82;5.03;;;;;;;7.40;69.19;100439.69;4889306;29;20103;-87
2022/03/08 11:54:01;;;;;;;7.50;2.83;;;;;;;7.30;67.74;100438.84;4877462;29;20044;-89
2022/03/08 11:56:54;;;;;;;33.08;19.00;;;;;;;7.16;67.82;100443.22;4904075;29;20048;-89
2022/03/08 11:59:38;;;;;;;5.60;3.55;;;;;;;7.26;66.90;100437.97;4890400;29;20037;-88
2022/03/08 12:02:25;;;;;;;6.80;3.20;;;;;;;7.24;67.76;100444.06;4903751;29;20045;-90
2022/03/08 12:05:38;;;;;;;7.78;4.13;;;;;;;7.56;68.69;100446.59;4890023;29;20056;-89
2022/03/08 12:08:25;;;;;;;9.20;4.05;;;;;;;8.01;67.75;100439.47;4890009;29;20048;-89
2022/03/08 12:11:32;;;;;;;12.60;7.55;;;;;;;8.08;69.39;100437.72;4889761;29;20040;-90
2022/03/08 12:14:38;;;;;;;8.75;3.92;;;;;;;8.40;67.88;100433.22;4903651;29;20041;-89
2022/03/08 12:17:23;;;;;;;8.63;5.78;;;;;;;8.09;64.10;100423.78;4887133;29;20068;-89
2022/03/08 12:20:14;;;;;;;10.30;8.07;;;;;;;7.93;63.29;100426.47;4889408;29;20056;-89
2022/03/08 12:23:12;;;;;;;4.40;2.70;;;;;;;8.12;63.15;100424.63;4903170;29;20449;-90
2022/03/08 12:26:25;;;;;;;10.00;5.50;;;;;;;8.18;64.95;100410.69;4889343;29;20055;-90
2022/03/08 12:29:21;;;;;;;4.90;2.53;;;;;;;8.42;59.87;100428.00;4889740;29;20036;-90
2022/03/08 12:32:06;;;;;;;12.90;5.30;;;;;;;8.13;63.80;100425.53;4873827;29;20060;-90
2022/03/08 12:34:53;;;;;;;11.18;4.18;;;;;;;8.03;63.54;100414.25;4903521;29;20040;-89
2022/03/08 12:37:47;;;;;;;4.82;2.83;;;;;;;7.80;61.90;100408.25;4902937;29;20045;-89